createdAt,value
2023-02-19T00:03:52.462Z,64.59
2023-02-19T00:08:55.045Z,63.31
2023-02-19T00:14:01.440Z,63.92
2023-02-19T00:19:05.595Z,64.76
2023-02-19T00:24:08.587Z,64.61
2023-02-19T00:29:16.440Z,64.26
2023-02-19T00:34:21.767Z,61.92
2023-02-19T00:39:26.820Z,61.92
2023-02-19T00:44:29.042Z,62.43
2023-02-19T00:49:30.983Z,61.94
2023-02-19T00:54:32.900Z,64.32
2023-02-19T00:59:36.954Z,64.51
2023-02-19T01:04:38.936Z,63.49
2023-02-19T01:09:42.968Z,63.53
2023-02-19T01:14:45.227Z,63.36
2023-02-19T01:19:47.861Z,63.80
2023-02-19T01:24:49.812Z,63.58
2023-02-19T01:29:51.801Z,63.88
2023-02-19T01:34:53.906Z,63.94
2023-02-19T01:39:55.820Z,64.23
2023-02-19T01:45:38.415Z,65.00
2023-02-19T01:50:50.718Z,65.22
2023-02-19T01:55:57.480Z,64.96
2023-02-19T02:01:03.878Z,65.31
2023-02-19T02:06:09.787Z,65.65
2023-02-19T02:11:12.651Z,65.69
2023-02-19T02:16:20.742Z,65.24
2023-02-19T02:21:53.646Z,65.46
2023-02-19T02:27:16.261Z,65.98
2023-02-19T02:32:33.846Z,66.01
2023-02-19T02:37:38.669Z,66.15
2023-02-19T02:42:41.468Z,66.33
2023-02-19T02:47:56.393Z,66.65
2023-02-19T02:53:28.357Z,67.20
2023-02-19T02:58:30.744Z,67.88
2023-02-19T03:03:36.093Z,68.19
2023-02-19T03:08:42.203Z,68.70
2023-02-19T03:14:03.182Z,68.98
2023-02-19T03:19:21.854Z,69.46
2023-02-19T03:24:56.244Z,70.13
2023-02-19T03:30:00.548Z,70.66
2023-02-19T03:35:07.475Z,70.95
2023-02-19T03:40:10.271Z,71.43
2023-02-19T03:45:12.320Z,71.92
2023-02-19T03:50:25.284Z,72.32
2023-02-19T03:55:37.874Z,72.59
2023-02-19T04:00:50.983Z,72.49
2023-02-19T04:05:56.785Z,73.15
2023-02-19T04:11:00.258Z,73.41
2023-02-19T04:16:10.937Z,73.73
2023-02-19T04:21:13.703Z,74.50
2023-02-19T04:26:16.515Z,74.73
2023-02-19T04:31:18.579Z,75.00
2023-02-19T04:36:20.643Z,75.12
2023-02-19T04:41:22.556Z,75.50
2023-02-19T04:46:24.710Z,75.68
2023-02-19T04:51:26.647Z,76.01
2023-02-19T04:56:28.626Z,76.54
2023-02-19T05:01:30.703Z,76.96
2023-02-19T05:06:32.784Z,77.24
2023-02-19T05:11:34.885Z,77.19
2023-02-19T05:16:36.988Z,77.03
2023-02-19T05:21:42.578Z,76.80
2023-02-19T05:26:45.576Z,76.97
2023-02-19T05:31:49.064Z,76.95
2023-02-19T05:36:51.175Z,76.93
2023-02-19T05:41:53.178Z,77.07
2023-02-19T05:46:55.175Z,77.19
2023-02-19T05:51:57.173Z,77.10
2023-02-19T05:56:59.141Z,76.95
2023-02-19T06:02:01.061Z,76.67
2023-02-19T06:07:05.291Z,76.67
2023-02-19T06:12:08.254Z,76.63
2023-02-19T06:17:10.230Z,76.65
2023-02-19T06:22:14.971Z,76.82
2023-02-19T06:27:17.140Z,76.33
2023-02-19T06:32:19.279Z,75.85
2023-02-19T06:37:21.347Z,76.43
2023-02-19T06:42:23.344Z,75.86
2023-02-19T06:47:25.573Z,75.76
2023-02-19T06:52:27.986Z,76.06
2023-02-19T06:57:30.093Z,76.37
2023-02-19T07:02:32.159Z,76.49
2023-02-19T07:07:34.253Z,76.23
2023-02-19T07:12:36.433Z,76.12
2023-02-19T07:17:38.421Z,76.18
2023-02-19T07:22:41.866Z,76.38
2023-02-19T07:27:43.835Z,76.27
2023-02-19T07:32:46.040Z,76.46
2023-02-19T07:37:48.147Z,76.41
2023-02-19T07:42:50.208Z,76.00
2023-02-19T07:47:52.235Z,75.94
2023-02-19T07:52:54.240Z,75.81
2023-02-19T07:57:58.366Z,75.39
2023-02-19T08:03:00.579Z,75.21
2023-02-19T08:08:02.704Z,74.64
2023-02-19T08:13:20.737Z,74.36
2023-02-19T08:18:25.139Z,74.39
2023-02-19T08:23:27.986Z,74.27
2023-02-19T08:28:30.616Z,73.61
2023-02-19T08:33:32.929Z,73.23
2023-02-19T08:38:36.600Z,73.04
2023-02-19T08:43:39.005Z,72.53
2023-02-19T08:48:41.420Z,71.18
2023-02-19T08:53:43.460Z,70.89
2023-02-19T08:58:45.896Z,69.80
2023-02-19T09:03:47.882Z,69.25
2023-02-19T09:08:49.812Z,67.80
2023-02-19T09:13:51.899Z,65.57
2023-02-19T09:18:57.448Z,64.28
2023-02-19T09:23:59.543Z,63.71
2023-02-19T09:29:01.569Z,62.21
2023-02-19T09:34:03.560Z,59.27
2023-02-19T09:39:07.930Z,57.42
2023-02-19T09:44:09.933Z,54.92
2023-02-19T09:49:21.324Z,53.09
2023-02-19T09:54:26.159Z,52.08
2023-02-19T09:59:35.378Z,51.29
2023-02-19T10:04:39.270Z,49.94
2023-02-19T10:09:42.597Z,48.73
2023-02-19T10:14:48.174Z,48.13
2023-02-19T10:19:51.573Z,47.70
2023-02-19T10:24:55.131Z,45.67
2023-02-19T10:29:58.211Z,45.65
2023-02-19T10:35:16.515Z,45.19
2023-02-19T10:40:36.637Z,44.75
2023-02-19T10:45:50.500Z,43.31
2023-02-19T10:50:58.252Z,42.12
2023-02-19T10:56:38.745Z,43.38
2023-02-19T11:01:59.249Z,44.79
2023-02-19T11:07:17.134Z,42.68
2023-02-19T11:12:26.249Z,41.93
2023-02-19T11:17:30.118Z,40.90
2023-02-19T11:22:38.498Z,41.95
2023-02-19T11:28:07.231Z,43.28
2023-02-19T11:33:27.652Z,41.26
2023-02-19T11:38:30.250Z,42.15
2023-02-19T11:43:48.948Z,41.92
2023-02-19T11:49:14.363Z,41.59
2023-02-19T11:54:38.099Z,41.20
2023-02-19T12:00:15.794Z,40.37
2023-02-19T12:05:29.782Z,41.59
2023-02-19T12:10:50.256Z,40.83
2023-02-19T12:16:12.567Z,40.33
2023-02-19T12:21:39.307Z,41.30
2023-02-19T12:26:59.759Z,41.75
2023-02-19T12:32:24.583Z,41.35
2023-02-19T12:37:38.477Z,41.59
2023-02-19T12:43:06.845Z,41.53
2023-02-19T12:48:20.865Z,41.21
2023-02-19T12:53:38.752Z,41.91
2023-02-19T12:58:51.260Z,41.81
2023-02-19T13:04:11.861Z,42.36
2023-02-19T13:09:18.711Z,40.92
2023-02-19T13:14:34.898Z,42.54
2023-02-19T13:19:38.308Z,42.63
2023-02-19T13:24:42.219Z,39.71
2023-02-19T13:29:45.894Z,40.42
2023-02-19T13:35:01.077Z,39.95
2023-02-19T13:40:25.532Z,39.16
2023-02-19T13:45:42.090Z,41.09
2023-02-19T13:50:44.196Z,41.72
2023-02-19T13:55:52.769Z,43.02
2023-02-19T14:00:55.993Z,38.44
2023-02-19T14:06:01.297Z,41.09
2023-02-19T14:11:03.328Z,40.45
2023-02-19T14:16:05.280Z,40.29
2023-02-19T14:21:16.309Z,40.05
2023-02-19T14:26:18.710Z,39.67
2023-02-19T14:31:31.866Z,38.57
2023-02-19T14:36:33.893Z,40.07
2023-02-19T14:41:38.839Z,39.11
2023-02-19T14:46:53.444Z,37.47
2023-02-19T14:51:59.629Z,37.13
2023-02-19T14:57:02.565Z,39.37
2023-02-19T15:02:21.262Z,37.81
2023-02-19T15:07:26.286Z,38.23
2023-02-19T15:12:35.375Z,37.31
2023-02-19T15:17:42.042Z,36.14
2023-02-19T15:22:53.986Z,37.57
2023-02-19T15:27:55.962Z,40.76
2023-02-19T15:32:59.758Z,38.45
2023-02-19T15:38:01.760Z,41.05
2023-02-19T15:43:03.877Z,39.17
2023-02-19T15:48:14.764Z,37.19
2023-02-19T15:53:23.363Z,37.30
2023-02-19T15:59:02.135Z,37.52
2023-02-19T16:04:04.875Z,38.12
2023-02-19T16:09:07.293Z,37.94
2023-02-19T16:14:31.644Z,38.73
2023-02-19T16:19:47.546Z,38.58
2023-02-19T16:24:51.623Z,38.79
2023-02-19T16:29:53.638Z,38.60
2023-02-19T16:34:55.615Z,39.43
2023-02-19T16:40:11.260Z,40.62
2023-02-19T16:45:13.400Z,41.28
2023-02-19T16:50:17.336Z,42.12
2023-02-19T16:55:19.141Z,42.39
2023-02-19T17:00:27.247Z,42.72
2023-02-19T17:05:31.479Z,43.45
2023-02-19T17:10:33.710Z,43.80
2023-02-19T17:15:35.737Z,44.36
2023-02-19T17:20:38.744Z,44.34
2023-02-19T17:25:40.874Z,44.90
2023-02-19T17:30:43.042Z,45.63
2023-02-19T17:35:45.612Z,45.79
2023-02-19T17:40:47.517Z,46.43
2023-02-19T17:45:49.442Z,46.55
2023-02-19T17:50:52.397Z,46.76
2023-02-19T17:55:54.585Z,47.64
2023-02-19T18:00:56.717Z,47.70
2023-02-19T18:05:58.824Z,47.90
2023-02-19T18:11:01.073Z,47.84
2023-02-19T18:16:03.055Z,47.62
2023-02-19T18:21:09.283Z,47.68
2023-02-19T18:26:11.640Z,48.47
2023-02-19T18:31:14.305Z,49.04
2023-02-19T18:36:16.465Z,48.63
2023-02-19T18:41:21.045Z,48.98
2023-02-19T18:46:23.797Z,49.18
2023-02-19T18:51:26.005Z,50.00
2023-02-19T18:56:29.697Z,50.81
2023-02-19T19:01:31.832Z,51.36
2023-02-19T19:06:35.885Z,51.44
2023-02-19T19:11:38.517Z,51.87
2023-02-19T19:16:41.032Z,52.08
2023-02-19T19:21:43.137Z,51.66
2023-02-19T19:26:46.775Z,52.12
2023-02-19T19:31:54.413Z,52.34
2023-02-19T19:36:56.464Z,52.70
2023-02-19T19:41:58.462Z,53.29
2023-02-19T19:47:00.361Z,53.46
2023-02-19T19:52:02.393Z,53.40
2023-02-19T19:57:04.572Z,53.50
2023-02-19T20:02:07.698Z,53.62
2023-02-19T20:07:10.127Z,53.74
2023-02-19T20:12:12.920Z,54.01
2023-02-19T20:17:15.292Z,54.37
2023-02-19T20:22:17.258Z,54.06
2023-02-19T20:27:20.700Z,54.54
2023-02-19T20:32:22.957Z,55.14
2023-02-19T20:37:24.940Z,54.89
2023-02-19T20:42:26.920Z,55.44
2023-02-19T20:47:28.833Z,55.22
2023-02-19T20:52:30.926Z,55.24
2023-02-19T20:57:32.943Z,55.65
2023-02-19T21:02:35.150Z,55.97
2023-02-19T21:07:37.309Z,56.10
2023-02-19T21:12:39.497Z,55.80
2023-02-19T21:17:44.951Z,56.07
2023-02-19T21:22:47.065Z,56.24
2023-02-19T21:27:49.277Z,63.61
2023-02-19T21:32:51.465Z,62.71
2023-02-19T21:37:53.448Z,65.61
2023-02-19T21:42:55.516Z,66.88
2023-02-19T21:47:58.286Z,64.50
2023-02-19T21:53:01.474Z,65.15
2023-02-19T21:58:03.739Z,63.96
2023-02-19T22:03:05.973Z,62.24
2023-02-19T22:08:07.939Z,63.45
2023-02-19T22:13:10.239Z,63.19
2023-02-19T22:18:14.580Z,62.51
2023-02-19T22:23:16.562Z,64.75
2023-02-19T22:28:21.478Z,64.35
2023-02-19T22:33:23.685Z,64.85
2023-02-19T22:38:25.664Z,66.60
2023-02-19T22:43:27.634Z,66.12
2023-02-19T22:48:31.467Z,65.77
2023-02-19T22:53:33.537Z,64.02
2023-02-19T22:58:36.146Z,64.41
2023-02-19T23:03:58.530Z,65.61
2023-02-19T23:09:08.998Z,64.20
2023-02-19T23:14:12.879Z,63.66
2023-02-19T23:19:15.672Z,62.95
2023-02-19T23:24:19.262Z,63.72
2023-02-19T23:29:25.159Z,64.97
2023-02-19T23:34:27.583Z,66.18
2023-02-19T23:39:29.841Z,68.01
2023-02-19T23:44:32.009Z,67.83
2023-02-19T23:49:34.120Z,68.33
2023-02-19T23:54:36.133Z,69.10
2023-02-19T23:59:38.331Z,69.26
